Time;durP1;ratioP1;P1;durP2;ratioP2;P2;SDS_P1;SDS_P2;PMS_P1;PMS_P2;Temp;Humidity;BMP_temperature;BMP_pressure;BME280_temperature;BME280_humidity;BME280_pressure;Samples;Min_cycle;Max_cycle;Signal;HPM_P1;HPM_P2
2022/09/12 00:01:26;;;;;;;11.25;6.28;;;15.70;60.30;;;;;;5073471;28;20033;-85
2022/09/12 00:03:54;;;;;;;11.40;6.47;;;15.60;60.50;;;;;;5057662;28;20192;-86
2022/09/12 00:06:26;;;;;;;10.27;6.18;;;15.60;60.70;;;;;;5063278;28;20037;-87
2022/09/12 00:09:05;;;;;;;10.15;6.50;;;15.60;61.30;;;;;;5059088;28;20325;-88
2022/09/12 00:11:33;;;;;;;9.32;6.07;;;15.60;61.40;;;;;;5058753;28;20415;-88
2022/09/12 00:14:01;;;;;;;8.02;5.72;;;15.60;61.60;;;;;;5043063;28;20033;-87
2022/09/12 00:16:29;;;;;;;8.80;5.75;;;15.60;61.60;;;;;;5057803;28;20037;-88
2022/09/12 00:18:55;;;;;;;10.40;6.18;;;15.60;61.90;;;;;;5062926;28;20036;-87
2022/09/12 00:21:22;;;;;;;7.70;5.40;;;15.50;62.00;;;;;;5038819;28;20041;-88
2022/09/12 00:23:48;;;;;;;8.25;5.07;;;15.50;62.20;;;;;;5062954;28;20044;-82
2022/09/12 00:26:16;;;;;;;9.43;5.35;;;15.50;62.30;;;;;;5059475;28;20536;-88
2022/09/12 00:28:42;;;;;;;8.68;5.88;;;15.50;62.50;;;;;;5061493;28;20123;-86
2022/09/12 00:31:14;;;;;;;9.13;5.32;;;15.50;62.70;;;;;;5055748;28;20127;-87
2022/09/12 00:33:41;;;;;;;8.75;5.80;;;15.50;62.80;;;;;;5056688;28;20063;-84
2022/09/12 00:36:13;;;;;;;10.90;6.05;;;15.40;62.90;;;;;;5055041;28;20112;-86
2022/09/12 00:38:40;;;;;;;9.18;5.68;;;15.50;63.10;;;;;;5056184;28;20087;-86
2022/09/12 00:41:34;;;;;;;7.45;5.63;;;15.40;63.20;;;;;;5056764;28;20059;-86
2022/09/12 00:44:19;;;;;;;8.40;5.32;;;15.40;63.20;;;;;;5062392;28;20499;-87
2022/09/12 00:47:03;;;;;;;6.88;4.90;;;15.40;63.30;;;;;;5062123;28;20047;-84
2022/09/12 00:49:35;;;;;;;8.15;4.90;;;15.40;63.50;;;;;;5040751;28;20040;-84
2022/09/12 00:52:14;;;;;;;8.52;5.65;;;15.40;63.50;;;;;;5057417;28;20048;-88
2022/09/12 00:54:56;;;;;;;7.72;5.50;;;15.40;63.70;;;;;;5057403;28;20062;-86
2022/09/12 00:57:28;;;;;;;9.40;5.43;;;15.40;63.90;;;;;;5056282;28;20511;-89
2022/09/12 01:00:03;;;;;;;8.60;5.32;;;15.40;64.10;;;;;;5061689;28;20067;-88
2022/09/12 01:02:29;;;;;;;7.33;5.10;;;15.30;64.20;;;;;;5043715;28;20025;-87
2022/09/12 01:04:55;;;;;;;6.80;4.90;;;15.30;64.30;;;;;;5027191;28;20037;-87
2022/09/12 01:07:21;;;;;;;11.40;5.25;;;15.30;64.30;;;;;;5039971;28;20036;-88
2022/09/12 01:09:47;;;;;;;7.05;5.00;;;15.30;64.50;;;;;;5026868;28;20029;-87
2022/09/12 01:12:14;;;;;;;9.30;5.70;;;15.30;64.50;;;;;;5039597;28;20416;-86
2022/09/12 01:14:40;;;;;;;8.57;5.72;;;15.30;64.70;;;;;;5057602;28;20028;-84
2022/09/12 01:17:10;;;;;;;9.65;5.35;;;15.30;64.60;;;;;;5055544;28;20029;-87
2022/09/12 01:19:51;;;;;;;7.80;5.47;;;15.30;64.60;;;;;;5061902;28;20041;-87
2022/09/12 01:22:20;;;;;;;9.30;5.72;;;15.30;64.60;;;;;;5057912;28;20024;-86
2022/09/12 01:25:30;;;;;;;8.13;5.07;;;15.30;64.50;;;;;;5039560;28;20063;-87
2022/09/12 01:27:58;;;;;;;9.32;6.00;;;15.20;64.50;;;;;;4997084;28;20030;-89
2022/09/12 01:31:02;;;;;;;8.85;5.32;;;15.30;64.50;;;;;;4980916;28;20123;-85
2022/09/12 01:34:00;;;;;;;6.63;4.80;;;15.20;64.50;;;;;;4927359;29;20036;-89
2022/09/12 01:36:40;;;;;;;8.15;5.60;;;15.20;64.60;;;;;;4933016;29;20158;-78
2022/09/12 01:39:26;;;;;;;10.10;5.95;;;15.20;64.70;;;;;;4942331;29;20048;-87
2022/09/12 01:42:27;;;;;;;8.75;5.55;;;15.20;64.70;;;;;;4920295;29;20369;-89
2022/09/12 01:45:03;;;;;;;9.57;5.60;;;15.20;64.70;;;;;;4907658;29;20039;-88
2022/09/12 01:47:53;;;;;;;10.15;5.78;;;15.20;64.60;;;;;;4924190;29;20040;-89
2022/09/12 01:50:40;;;;;;;10.00;5.68;;;15.20;64.70;;;;;;4921791;29;20040;-90
2022/09/12 01:53:14;;;;;;;9.32;6.57;;;15.20;64.80;;;;;;4920582;29;20592;-88
2022/09/12 01:55:55;;;;;;;12.50;6.30;;;15.10;64.70;;;;;;4905701;29;20040;-90
2022/09/12 01:58:33;;;;;;;10.98;6.13;;;15.20;64.90;;;;;;4923942;29;20047;-90
2022/09/12 02:01:07;;;;;;;9.18;6.07;;;15.10;64.90;;;;;;4921436;29;20064;-92
2022/09/12 02:03:43;;;;;;;6.53;5.50;;;15.10;64.70;;;;;;4926827;28;20040;-89
2022/09/12 02:06:21;;;;;;;7.45;5.55;;;15.10;64.90;;;;;;4976471;28;20073;-90
2022/09/12 02:08:53;;;;;;;8.75;5.75;;;15.10;64.90;;;;;;5061125;28;20039;-82
2022/09/12 02:11:20;;;;;;;9.95;6.00;;;15.10;65.00;;;;;;5056009;28;20048;-89
2022/09/12 02:13:57;;;;;;;9.73;5.88;;;15.10;64.90;;;;;;5054694;28;20425;-87
2022/09/12 02:16:32;;;;;;;9.63;6.28;;;15.10;64.90;;;;;;5055499;28;21101;-87
2022/09/12 02:19:06;;;;;;;7.57;5.93;;;15.10;65.00;;;;;;5060636;28;20132;-84
2022/09/12 02:21:35;;;;;;;9.13;5.85;;;15.10;65.00;;;;;;5062183;28;20706;-83
2022/09/12 02:24:03;;;;;;;9.68;6.32;;;15.10;65.00;;;;;;5058498;28;20032;-84
2022/09/12 02:26:40;;;;;;;9.05;6.57;;;15.00;64.80;;;;;;5061835;28;20056;-86
2022/09/12 02:29:06;;;;;;;9.40;6.43;;;15.00;65.00;;;;;;5036258;28;20423;-83
2022/09/12 02:31:46;;;;;;;9.57;7.20;;;15.00;65.00;;;;;;5034092;28;20113;-89
2022/09/12 02:34:17;;;;;;;8.40;7.03;;;15.00;64.90;;;;;;5035592;28;20155;-88
2022/09/12 02:37:10;;;;;;;13.10;6.65;;;15.00;65.00;;;;;;5025588;28;20037;-86
2022/09/12 02:39:36;;;;;;;11.15;6.88;;;15.00;64.90;;;;;;5047444;28;20037;-88
2022/09/12 02:42:02;;;;;;;10.25;6.65;;;15.00;64.90;;;;;;5038748;28;20029;-88
2022/09/12 02:44:30;;;;;;;9.77;6.45;;;15.00;64.90;;;;;;5057924;28;21044;-85
2022/09/12 02:47:09;;;;;;;9.50;6.50;;;15.00;64.90;;;;;;5056388;28;20036;-87
2022/09/12 02:49:36;;;;;;;10.45;6.18;;;15.00;64.90;;;;;;5055865;28;20044;-89
2022/09/12 02:52:02;;;;;;;10.02;6.40;;;14.90;64.90;;;;;;5037560;28;20041;-87
2022/09/12 02:54:29;;;;;;;11.35;6.50;;;14.90;64.90;;;;;;5055761;28;20037;-88
2022/09/12 02:56:55;;;;;;;10.60;6.60;;;14.90;65.10;;;;;;5054000;28;20097;-89
2022/09/12 02:59:22;;;;;;;9.82;6.15;;;14.90;65.10;;;;;;5055392;28;20055;-85
2022/09/12 03:02:09;;;;;;;7.80;6.05;;;14.90;65.10;;;;;;5037956;28;20029;-89
2022/09/12 03:04:56;;;;;;;8.93;5.72;;;14.90;65.10;;;;;;5072369;28;20041;-88
2022/09/12 03:07:41;;;;;;;;;;;14.90;65.10;;;;;;4984271;28;20037;-87
2022/09/12 03:10:20;;;;;;;9.10;5.47;;;14.90;65.10;;;;;;5012612;28;19945;-86
2022/09/12 03:13:02;;;;;;;8.50;5.57;;;14.90;64.90;;;;;;4997473;28;20034;-88
2022/09/12 03:15:36;;;;;;;11.00;5.80;;;14.90;65.00;;;;;;5012846;28;20308;-88
2022/09/12 03:18:18;;;;;;;8.30;5.63;;;14.90;65.20;;;;;;5013420;28;20512;-84
2022/09/12 03:20:49;;;;;;;8.38;5.47;;;14.80;65.30;;;;;;5013888;28;20026;-89
2022/09/12 03:23:30;;;;;;;8.90;5.50;;;14.80;65.20;;;;;;5013378;28;20093;-89
2022/09/12 03:26:04;;;;;;;6.25;4.90;;;14.80;65.40;;;;;;5015101;28;20025;-90
2022/09/12 03:28:33;;;;;;;10.68;5.68;;;14.80;65.50;;;;;;5029991;28;20034;-89
2022/09/12 03:30:59;;;;;;;7.78;5.22;;;14.80;65.60;;;;;;4997936;28;20109;-90
2022/09/12 03:33:26;;;;;;;9.77;5.72;;;14.80;65.60;;;;;;5012854;28;20102;-87
2022/09/12 03:35:52;;;;;;;10.13;5.53;;;14.80;65.70;;;;;;5023479;28;20037;-87
2022/09/12 03:38:18;;;;;;;7.65;5.32;;;14.80;65.80;;;;;;4993587;28;20141;-81
2022/09/12 03:40:45;;;;;;;8.90;6.13;;;14.80;65.80;;;;;;4990517;28;20550;-80
2022/09/12 03:43:11;;;;;;;9.02;4.90;;;14.80;66.00;;;;;;5012227;28;20065;-84
2022/09/12 03:45:38;;;;;;;9.73;5.65;;;14.80;66.00;;;;;;5015104;28;20573;-83
2022/09/12 03:48:05;;;;;;;7.38;5.55;;;14.80;66.10;;;;;;5034039;28;20029;-82
2022/09/12 03:50:32;;;;;;;9.07;5.35;;;14.80;66.20;;;;;;5033385;28;20053;-82
2022/09/12 03:52:59;;;;;;;9.00;5.30;;;14.80;66.10;;;;;;5020511;28;20504;-79
2022/09/12 03:55:25;;;;;;;7.38;5.18;;;14.80;66.30;;;;;;5016483;28;20068;-76
2022/09/12 03:57:54;;;;;;;8.18;4.97;;;14.80;66.20;;;;;;5024813;28;20343;-82
2022/09/12 04:00:21;;;;;;;7.53;5.13;;;14.80;66.20;;;;;;5036091;28;20515;-82
2022/09/12 04:02:47;;;;;;;5.65;4.85;;;14.80;66.00;;;;;;5052675;28;20594;-84
2022/09/12 04:05:13;;;;;;;6.88;5.32;;;14.80;66.00;;;;;;5055939;28;20083;-84
2022/09/12 04:07:39;;;;;;;8.10;4.90;;;14.80;66.10;;;;;;5054014;28;20043;-84
2022/09/12 04:10:06;;;;;;;6.40;4.75;;;14.80;66.20;;;;;;5035736;28;20036;-81
2022/09/12 04:12:32;;;;;;;8.93;5.40;;;14.80;66.20;;;;;;5056441;28;20054;-84
2022/09/12 04:14:58;;;;;;;9.05;5.18;;;14.80;66.40;;;;;;5044336;28;20032;-82
2022/09/12 04:17:23;;;;;;;7.38;5.35;;;14.80;66.50;;;;;;5058455;28;20037;-82
2022/09/12 04:19:49;;;;;;;7.43;5.03;;;14.70;66.60;;;;;;5027941;28;20033;-82
2022/09/12 04:22:15;;;;;;;6.65;5.10;;;14.70;66.70;;;;;;5056463;28;20025;-82
2022/09/12 04:24:41;;;;;;;7.20;5.30;;;14.70;66.90;;;;;;5056902;28;20036;-81
2022/09/12 04:27:07;;;;;;;8.52;5.25;;;14.70;67.00;;;;;;5056970;28;20032;-83
2022/09/12 04:29:34;;;;;;;7.32;5.45;;;14.70;67.00;;;;;;5041434;28;20036;-79
2022/09/12 04:32:00;;;;;;;6.65;5.47;;;14.70;67.20;;;;;;5028113;28;20062;-82
2022/09/12 04:34:30;;;;;;;8.88;5.07;;;14.70;67.30;;;;;;5058007;28;20032;-82
2022/09/12 04:36:56;;;;;;;7.90;5.57;;;14.70;67.40;;;;;;5066398;28;20082;-82
2022/09/12 04:39:22;;;;;;;7.05;4.82;;;14.70;67.40;;;;;;5072419;28;20406;-82
2022/09/12 04:41:48;;;;;;;6.85;5.10;;;14.70;67.50;;;;;;5045627;28;20112;-86
2022/09/12 04:44:14;;;;;;;7.70;5.00;;;14.70;67.60;;;;;;5049880;28;20037;-87
2022/09/12 04:46:45;;;;;;;6.25;5.03;;;14.60;67.70;;;;;;5053359;28;20068;-85
2022/09/12 04:49:13;;;;;;;8.65;5.15;;;14.70;67.90;;;;;;5043315;28;20090;-88
2022/09/12 04:51:40;;;;;;;6.75;5.35;;;14.60;68.00;;;;;;5039367;28;20036;-86
2022/09/12 04:54:10;;;;;;;8.90;5.28;;;14.60;68.30;;;;;;5055006;28;20127;-83
2022/09/12 04:56:38;;;;;;;7.75;5.60;;;14.60;68.30;;;;;;5037197;28;20073;-87
2022/09/12 04:59:04;;;;;;;7.10;5.40;;;14.60;68.50;;;;;;5042135;28;20431;-82
2022/09/12 05:01:30;;;;;;;7.68;5.90;;;14.60;68.80;;;;;;5042765;28;20033;-85
2022/09/12 05:03:58;;;;;;;7.85;5.32;;;14.60;69.10;;;;;;5041356;28;20048;-85
2022/09/12 05:06:27;;;;;;;7.90;5.60;;;14.60;69.20;;;;;;5071020;28;20510;-85
2022/09/12 05:08:55;;;;;;;12.63;6.03;;;14.60;69.30;;;;;;5040266;28;20044;-84
2022/09/12 05:11:26;;;;;;;9.57;5.72;;;14.60;69.40;;;;;;5051493;28;20044;-84
2022/09/12 05:13:53;;;;;;;9.27;5.95;;;14.60;69.50;;;;;;5055095;28;20095;-84
2022/09/12 05:16:20;;;;;;;7.93;5.57;;;14.60;69.50;;;;;;5064863;28;20035;-84
2022/09/12 05:18:46;;;;;;;7.38;5.03;;;14.60;69.70;;;;;;5052748;28;20095;-83
2022/09/12 05:21:15;;;;;;;6.85;5.30;;;14.60;69.60;;;;;;5054906;28;20032;-85
2022/09/12 05:23:41;;;;;;;7.03;5.32;;;14.60;69.60;;;;;;5064605;28;20032;-84
2022/09/12 05:26:10;;;;;;;7.28;4.90;;;14.60;69.70;;;;;;5072488;28;20047;-86
2022/09/12 05:28:37;;;;;;;9.55;5.72;;;14.60;69.80;;;;;;5062455;28;20045;-85
2022/09/12 05:31:09;;;;;;;7.88;5.70;;;14.60;69.90;;;;;;5051621;28;20060;-84
2022/09/12 05:33:37;;;;;;;11.48;5.65;;;14.60;69.80;;;;;;5059374;28;20047;-84
2022/09/12 05:36:05;;;;;;;8.23;5.82;;;14.60;70.00;;;;;;5060029;28;20044;-85
2022/09/12 05:38:33;;;;;;;6.93;5.35;;;14.60;69.90;;;;;;5071309;28;20032;-84
2022/09/12 05:41:05;;;;;;;6.95;5.20;;;14.60;70.10;;;;;;5068188;28;20617;-80
2022/09/12 05:43:35;;;;;;;8.45;5.35;;;14.60;70.10;;;;;;5064058;28;20036;-83
2022/09/12 05:46:07;;;;;;;7.55;5.50;;;14.60;70.30;;;;;;5061249;28;20029;-84
2022/09/12 05:48:37;;;;;;;8.63;5.65;;;14.60;70.30;;;;;;5056115;28;20123;-83
2022/09/12 05:51:09;;;;;;;8.10;5.50;;;14.60;70.40;;;;;;5070585;28;20041;-82
2022/09/12 05:53:36;;;;;;;7.85;5.32;;;14.60;70.50;;;;;;5063618;28;20060;-83
2022/09/12 05:56:10;;;;;;;8.35;5.30;;;14.60;70.70;;;;;;5055768;28;20692;-82
2022/09/12 05:58:38;;;;;;;5.97;5.10;;;14.60;70.60;;;;;;5054161;28;20055;-82
2022/09/12 06:01:16;;;;;;;9.48;6.05;;;14.60;70.40;;;;;;5050049;28;20085;-81
2022/09/12 06:03:44;;;;;;;8.77;5.38;;;14.60;70.80;;;;;;5059343;28;20179;-82
2022/09/12 06:06:12;;;;;;;8.30;5.53;;;14.60;70.80;;;;;;5069122;28;20032;-82
2022/09/12 06:08:43;;;;;;;9.85;5.85;;;14.70;70.70;;;;;;5075534;28;20031;-83
2022/09/12 06:11:12;;;;;;;9.18;5.68;;;14.70;70.80;;;;;;5041403;28;20063;-83
2022/09/12 06:13:39;;;;;;;8.02;5.70;;;14.60;70.90;;;;;;5043807;28;20526;-82
2022/09/12 06:16:16;;;;;;;6.53;5.20;;;14.60;71.00;;;;;;5050278;28;20040;-82
2022/09/12 06:19:03;;;;;;;6.50;4.82;;;14.70;71.10;;;;;;5041664;28;20430;-82
2022/09/12 06:21:30;;;;;;;6.57;5.28;;;14.60;71.20;;;;;;5046332;28;20455;-81
2022/09/12 06:23:59;;;;;;;6.28;5.22;;;14.70;71.20;;;;;;5042037;28;20041;-81
2022/09/12 06:26:26;;;;;;;6.45;4.90;;;14.70;71.10;;;;;;5040549;28;20519;-81
2022/09/12 06:28:54;;;;;;;7.25;5.15;;;14.70;71.30;;;;;;5033482;28;20489;-81
2022/09/12 06:31:32;;;;;;;6.93;5.13;;;14.70;71.50;;;;;;5035215;28;20047;-80
2022/09/12 06:34:03;;;;;;;7.32;4.70;;;14.70;71.60;;;;;;5049413;28;20131;-80
2022/09/12 06:36:32;;;;;;;6.15;4.32;;;14.60;71.70;;;;;;5033127;28;20037;-81
2022/09/12 06:39:01;;;;;;;4.95;4.43;;;14.70;71.80;;;;;;5033377;28;20420;-81
2022/09/12 06:41:29;;;;;;;5.82;4.25;;;14.60;71.80;;;;;;5018052;28;20498;-80
2022/09/12 06:43:56;;;;;;;4.97;4.22;;;14.60;71.80;;;;;;5033213;28;20053;-81
2022/09/12 06:46:23;;;;;;;3.75;3.28;;;14.60;71.80;;;;;;5032899;28;20138;-81
2022/09/12 06:48:49;;;;;;;5.38;4.13;;;14.60;71.90;;;;;;5035303;28;20067;-81
2022/09/12 06:51:17;;;;;;;4.88;3.47;;;14.60;72.10;;;;;;5015665;28;20043;-81
2022/09/12 06:53:44;;;;;;;4.20;3.80;;;14.60;72.10;;;;;;5035192;28;20033;-81
2022/09/12 06:56:18;;;;;;;5.43;3.67;;;14.60;72.10;;;;;;5039034;28;20454;-86
2022/09/12 06:58:45;;;;;;;4.78;3.75;;;14.60;72.00;;;;;;5036109;28;20132;-78
2022/09/12 07:01:14;;;;;;;7.57;4.45;;;14.60;72.00;;;;;;5037191;28;20178;-84
2022/09/12 15:05:47;;;;;;;;;;;15.10;66.90;;;;;;5017674;28;20424;-80
2022/09/12 15:08:14;;;;;;;2.85;2.38;;;15.40;66.30;;;;;;4955542;28;19926;-80
2022/09/12 15:10:40;;;;;;;3.55;2.88;;;15.50;65.80;;;;;;4989207;28;20390;-80
2022/09/12 15:13:13;;;;;;;3.70;3.13;;;15.60;65.40;;;;;;4939455;28;20034;-79
2022/09/12 15:15:41;;;;;;;3.38;3.08;;;15.70;65.10;;;;;;4974026;28;20452;-79
2022/09/12 15:18:08;;;;;;;4.60;3.15;;;15.70;64.90;;;;;;4955108;28;20202;-78
2022/09/12 15:20:42;;;;;;;3.47;2.95;;;15.80;64.70;;;;;;4972054;28;20046;-79
2022/09/12 15:23:20;;;;;;;3.35;2.60;;;15.80;64.20;;;;;;4961912;28;20423;-78
2022/09/12 15:25:46;;;;;;;3.40;2.95;;;15.80;63.90;;;;;;4943828;28;20364;-80
2022/09/12 15:28:17;;;;;;;3.83;2.88;;;15.80;63.50;;;;;;4972469;28;20019;-77
2022/09/12 15:30:43;;;;;;;2.97;2.50;;;15.80;63.50;;;;;;4971518;28;20039;-79
2022/09/12 15:33:10;;;;;;;3.55;2.83;;;15.80;63.40;;;;;;4972141;28;20035;-78
2022/09/12 15:35:37;;;;;;;3.20;2.90;;;15.80;63.20;;;;;;4958406;28;20457;-82
2022/09/12 15:38:03;;;;;;;3.97;2.60;;;15.80;63.00;;;;;;4975498;28;20039;-86
2022/09/12 15:40:28;;;;;;;5.85;3.17;;;15.80;64.60;;;;;;4975027;28;20038;-83
2022/09/12 15:42:55;;;;;;;11.73;3.10;;;15.90;65.40;;;;;;4983645;28;20069;-84
2022/09/12 15:45:26;;;;;;;4.95;3.17;;;15.90;65.60;;;;;;4993389;28;20078;-85
2022/09/12 15:47:52;;;;;;;3.70;2.80;;;16.00;65.90;;;;;;4962992;28;20035;-85
2022/09/12 15:50:19;;;;;;;3.42;3.13;;;16.10;65.90;;;;;;4958230;28;20042;-87
2022/09/12 15:52:45;;;;;;;4.93;3.03;;;16.20;66.20;;;;;;4960411;28;20035;-80
2022/09/12 15:55:24;;;;;;;3.50;2.90;;;16.20;65.30;;;;;;4987603;28;20026;-83
2022/09/12 15:57:50;;;;;;;7.18;3.50;;;16.20;63.90;;;;;;4975604;28;20043;-79
2022/09/12 16:00:17;;;;;;;4.78;3.03;;;16.30;62.90;;;;;;4961736;28;20053;-80
2022/09/12 16:02:45;;;;;;;5.53;3.65;;;16.20;62.90;;;;;;4985508;28;20564;-82
2022/09/12 16:05:15;;;;;;;5.80;3.60;;;16.10;64.20;;;;;;4965978;28;20046;-83
2022/09/12 16:07:42;;;;;;;4.63;3.47;;;16.20;65.20;;;;;;4958166;28;20081;-81
2022/09/12 16:10:14;;;;;;;4.65;3.47;;;16.20;66.00;;;;;;4960372;28;20041;-81
2022/09/12 16:12:40;;;;;;;7.55;4.10;;;16.20;66.70;;;;;;4943793;28;20134;-83
2022/09/12 16:15:06;;;;;;;7.05;3.92;;;16.20;68.20;;;;;;4971139;28;20042;-79
2022/09/12 16:17:32;;;;;;;4.47;3.40;;;16.30;67.70;;;;;;4953866;28;20170;-82
2022/09/12 16:19:58;;;;;;;4.88;3.40;;;16.20;66.60;;;;;;4969125;28;20190;-81
2022/09/12 16:22:27;;;;;;;4.03;3.35;;;16.20;65.90;;;;;;4975557;28;20243;-81
2022/09/12 16:24:56;;;;;;;3.90;3.28;;;16.20;65.30;;;;;;4987644;28;20133;-81
2022/09/12 16:27:22;;;;;;;3.30;3.00;;;16.20;65.00;;;;;;4974118;28;20121;-82
2022/09/12 16:29:48;;;;;;;3.88;3.40;;;16.20;65.00;;;;;;4984277;28;20177;-88
2022/09/12 16:32:14;;;;;;;4.78;3.38;;;16.10;65.00;;;;;;4986105;28;20039;-84
2022/09/12 16:34:40;;;;;;;4.28;3.33;;;16.20;66.70;;;;;;4960612;28;20092;-84
2022/09/12 16:37:06;;;;;;;6.25;4.15;;;16.10;65.70;;;;;;4994227;28;20416;-84
2022/09/12 16:39:33;;;;;;;4.35;2.92;;;16.20;64.80;;;;;;4980427;28;20042;-84
2022/09/12 16:41:59;;;;;;;5.35;3.25;;;16.10;64.50;;;;;;4997348;28;20047;-86
2022/09/12 16:44:25;;;;;;;3.42;3.05;;;16.10;64.60;;;;;;4994295;28;20046;-83
2022/09/12 16:46:51;;;;;;;4.95;3.67;;;16.10;64.30;;;;;;4995499;28;20039;-84
2022/09/12 16:49:17;;;;;;;3.40;2.92;;;16.10;64.30;;;;;;4970617;28;20101;-83
2022/09/12 16:51:46;;;;;;;4.50;3.03;;;16.10;63.40;;;;;;4963174;28;20508;-84
2022/09/12 16:54:14;;;;;;;3.60;2.90;;;16.00;63.00;;;;;;4997016;28;20035;-81
2022/09/12 16:56:40;;;;;;;4.68;3.00;;;16.00;63.00;;;;;;4971030;28;20046;-82
2022/09/12 16:59:15;;;;;;;3.30;3.00;;;15.90;62.70;;;;;;4979080;28;20035;-84
2022/09/12 17:01:41;;;;;;;3.40;3.00;;;15.90;62.80;;;;;;4996826;28;20042;-83
2022/09/12 17:04:10;;;;;;;3.55;2.63;;;15.90;63.50;;;;;;4958419;28;20046;-87
2022/09/12 17:06:36;;;;;;;5.03;3.65;;;15.90;64.00;;;;;;4989099;28;20214;-83
2022/09/12 17:09:03;;;;;;;8.40;3.60;;;15.90;63.50;;;;;;4990441;28;20102;-83
2022/09/12 17:11:35;;;;;;;4.38;3.20;;;15.90;63.20;;;;;;4994240;28;20029;-80
2022/09/12 17:14:04;;;;;;;3.63;2.88;;;15.90;63.00;;;;;;4996865;28;20042;-83
2022/09/12 17:16:32;;;;;;;4.95;3.30;;;15.90;63.20;;;;;;5001829;28;20062;-81
2022/09/12 17:18:58;;;;;;;3.42;3.00;;;15.90;63.10;;;;;;4975014;28;20103;-81
2022/09/12 17:21:25;;;;;;;3.67;2.80;;;15.80;62.60;;;;;;4990878;28;20497;-83
2022/09/12 17:23:51;;;;;;;3.90;2.83;;;15.80;62.70;;;;;;4979078;28;20047;-80
2022/09/12 17:26:17;;;;;;;3.13;2.78;;;15.80;62.70;;;;;;4978276;28;20038;-83
2022/09/12 17:28:43;;;;;;;4.85;3.15;;;15.80;62.30;;;;;;4979580;28;20084;-81
2022/09/12 17:31:12;;;;;;;2.75;2.55;;;15.80;62.10;;;;;;4992492;28;20022;-82
2022/09/12 17:33:39;;;;;;;5.95;2.70;;;15.80;62.20;;;;;;4978043;28;20034;-82
2022/09/12 17:36:13;;;;;;;3.33;3.03;;;15.80;62.30;;;;;;4976116;28;20035;-83
2022/09/12 17:38:41;;;;;;;3.95;3.00;;;15.80;62.00;;;;;;4982250;28;20254;-85
2022/09/12 17:41:17;;;;;;;4.05;2.70;;;15.80;62.00;;;;;;4992923;28;20042;-85
2022/09/12 17:43:51;;;;;;;3.90;2.90;;;15.70;61.80;;;;;;4970148;28;20045;-85
2022/09/12 17:46:22;;;;;;;4.43;2.97;;;15.70;61.80;;;;;;4945441;28;20038;-84
2022/09/12 17:48:53;;;;;;;2.70;2.50;;;15.70;62.10;;;;;;4960502;28;20057;-85
2022/09/12 17:51:21;;;;;;;5.22;2.85;;;15.80;62.20;;;;;;4948669;28;20169;-84
2022/09/12 17:53:47;;;;;;;3.00;2.70;;;15.70;62.30;;;;;;4962085;28;20069;-85
2022/09/12 17:56:14;;;;;;;2.85;2.65;;;15.70;62.30;;;;;;4976065;28;20078;-84
2022/09/12 17:58:40;;;;;;;3.60;2.88;;;15.70;62.10;;;;;;4977364;28;20034;-84
2022/09/12 18:04:02;;;;;;;3.38;2.67;;;15.70;62.20;;;;;;4977915;28;20050;-82
2022/09/12 18:06:30;;;;;;;3.45;2.92;;;15.70;62.10;;;;;;4974854;28;20031;-82
2022/09/12 18:09:00;;;;;;;3.03;2.70;;;15.70;61.70;;;;;;4974465;28;20177;-80
2022/09/12 18:11:26;;;;;;;3.40;3.10;;;15.60;61.30;;;;;;4945599;28;20517;-80
2022/09/12 18:13:52;;;;;;;3.53;3.22;;;15.60;61.40;;;;;;4957015;28;20045;-79
2022/09/12 18:16:19;;;;;;;5.30;3.10;;;15.60;61.30;;;;;;4975445;28;20396;-80
2022/09/12 18:18:45;;;;;;;3.28;2.97;;;15.60;61.10;;;;;;4974957;28;20042;-79
2022/09/12 18:21:12;;;;;;;3.75;3.08;;;15.60;61.00;;;;;;4974652;28;20034;-77
2022/09/12 18:23:38;;;;;;;4.25;3.10;;;15.60;61.00;;;;;;4957598;28;20070;-79
2022/09/12 18:26:09;;;;;;;3.10;2.80;;;15.50;60.90;;;;;;4957647;28;20038;-80
2022/09/12 18:28:37;;;;;;;3.25;2.95;;;15.50;60.70;;;;;;4957091;28;20508;-81
2022/09/12 18:31:08;;;;;;;4.60;3.30;;;15.50;61.50;;;;;;4941737;28;20039;-80
2022/09/12 18:33:34;;;;;;;4.18;3.53;;;15.50;60.90;;;;;;4958308;28;20038;-81
2022/09/12 18:36:08;;;;;;;4.50;3.15;;;15.50;61.00;;;;;;4970165;28;20126;-82
2022/09/12 18:38:34;;;;;;;4.10;3.50;;;15.50;60.90;;;;;;4980886;28;20038;-79
2022/09/12 18:41:05;;;;;;;4.82;2.90;;;15.50;60.90;;;;;;4980165;28;20051;-82
2022/09/12 18:43:31;;;;;;;4.90;3.30;;;15.40;60.80;;;;;;4983388;28;20090;-81
2022/09/12 18:46:02;;;;;;;3.40;3.03;;;15.40;61.00;;;;;;4983072;28;20479;-81
2022/09/12 18:48:31;;;;;;;3.75;3.15;;;15.40;61.00;;;;;;4952015;28;20118;-80
2022/09/12 18:51:05;;;;;;;4.32;3.45;;;15.50;61.00;;;;;;4980628;28;20057;-81
2022/09/12 18:53:32;;;;;;;4.70;3.00;;;15.40;60.90;;;;;;4960576;28;20080;-82
2022/09/12 18:56:07;;;;;;;3.85;3.05;;;15.40;60.90;;;;;;5003486;23;20068;-88
2022/09/12 18:58:35;;;;;;;4.22;3.55;;;15.40;61.00;;;;;;4910357;29;20038;-82
2022/09/12 19:01:12;;;;;;;3.55;3.17;;;15.40;61.00;;;;;;4929222;29;20070;-82
2022/09/12 19:03:39;;;;;;;3.22;2.95;;;15.40;61.00;;;;;;4945689;28;20039;-89
2022/09/12 19:06:11;;;;;;;5.05;3.53;;;15.40;61.00;;;;;;4948457;29;20070;-90
2022/09/12 19:08:37;;;;;;;5.30;3.47;;;15.30;61.00;;;;;;4958120;28;20194;-88
2022/09/12 19:11:04;;;;;;;3.75;3.40;;;15.40;61.00;;;;;;4917280;29;20035;-84
2022/09/12 19:13:30;;;;;;;3.83;3.30;;;15.30;61.10;;;;;;4924740;29;20103;-84
2022/09/12 19:15:59;;;;;;;3.72;2.85;;;15.30;61.10;;;;;;4913200;29;20039;-81
2022/09/12 19:18:25;;;;;;;5.40;3.40;;;15.30;61.20;;;;;;4941682;29;20050;-82
2022/09/12 19:20:51;;;;;;;4.20;3.45;;;15.30;61.20;;;;;;4912958;29;20422;-81
2022/09/12 19:23:18;;;;;;;4.68;3.47;;;15.30;61.20;;;;;;4924472;29;20594;-83
2022/09/12 19:25:53;;;;;;;4.82;4.07;;;15.30;61.30;;;;;;4942197;29;20171;-81
2022/09/12 19:28:19;;;;;;;4.68;4.00;;;15.30;61.30;;;;;;4942993;29;20123;-81
2022/09/12 19:30:46;;;;;;;5.22;3.97;;;15.30;61.30;;;;;;4908571;29;20051;-84
2022/09/12 19:33:12;;;;;;;5.82;4.30;;;15.30;61.30;;;;;;4942144;29;20042;-79
2022/09/12 19:35:38;;;;;;;4.88;4.15;;;15.30;61.30;;;;;;4943909;28;20414;-81
2022/09/12 19:38:04;;;;;;;4.80;4.35;;;15.30;61.50;;;;;;4945691;29;20047;-80
2022/09/12 19:40:30;;;;;;;5.03;4.03;;;15.30;61.50;;;;;;4920045;29;20031;-79
2022/09/12 19:42:56;;;;;;;7.80;4.30;;;15.30;61.40;;;;;;4944337;29;20035;-79
2022/09/12 19:45:22;;;;;;;5.65;3.90;;;15.30;61.50;;;;;;4898662;29;20059;-87
2022/09/12 19:47:48;;;;;;;4.88;3.95;;;15.20;61.50;;;;;;4947128;28;20050;-88
2022/09/12 19:50:15;;;;;;;4.03;3.40;;;15.30;61.60;;;;;;4947089;28;20062;-86
2022/09/12 19:52:41;;;;;;;4.13;3.72;;;15.20;61.70;;;;;;4915138;29;20093;-88
2022/09/12 19:55:08;;;;;;;3.78;3.47;;;15.20;61.60;;;;;;4928590;29;20055;-88
2022/09/12 19:57:33;;;;;;;4.22;3.80;;;15.30;61.70;;;;;;4944852;29;20040;-83
2022/09/12 20:00:04;;;;;;;6.70;3.95;;;15.30;61.70;;;;;;4929018;29;20095;-85
2022/09/12 20:02:31;;;;;;;4.25;3.75;;;15.30;61.80;;;;;;4932332;29;20522;-83
2022/09/12 20:04:58;;;;;;;6.25;3.47;;;15.30;61.90;;;;;;4914719;29;20051;-85
2022/09/12 20:07:24;;;;;;;3.90;3.50;;;15.20;61.80;;;;;;4946342;29;20059;-83
2022/09/12 20:09:49;;;;;;;3.72;3.42;;;15.20;61.80;;;;;;4947724;29;20032;-85
2022/09/12 20:12:15;;;;;;;3.95;3.28;;;15.20;61.80;;;;;;4944756;29;20035;-88
2022/09/12 20:14:41;;;;;;;4.13;3.40;;;15.20;61.80;;;;;;4901942;29;20032;-88
2022/09/12 20:17:07;;;;;;;4.93;3.75;;;15.20;61.90;;;;;;4913195;29;20059;-89
2022/09/12 20:19:33;;;;;;;5.00;3.80;;;15.20;61.90;;;;;;4914453;29;20081;-84
2022/09/12 20:21:59;;;;;;;3.95;3.55;;;15.20;61.90;;;;;;4913326;29;20046;-87
2022/09/12 20:24:26;;;;;;;4.28;3.58;;;15.20;62.00;;;;;;4916598;29;20134;-85
2022/09/12 20:26:51;;;;;;;4.07;3.05;;;15.20;62.00;;;;;;4913000;29;20031;-87
2022/09/12 20:29:17;;;;;;;4.78;3.75;;;15.20;62.00;;;;;;4912863;29;20035;-86
2022/09/12 20:31:43;;;;;;;4.18;3.47;;;15.20;62.00;;;;;;4930663;29;20039;-90
2022/09/12 20:34:14;;;;;;;3.78;3.40;;;15.20;62.10;;;;;;4917426;29;20081;-88
2022/09/12 20:36:41;;;;;;;5.30;3.75;;;15.10;62.00;;;;;;4901250;29;20043;-88
2022/09/12 20:39:11;;;;;;;6.47;4.28;;;15.10;62.10;;;;;;4910779;29;20066;-90
2022/09/12 20:41:37;;;;;;;4.47;3.60;;;15.10;62.20;;;;;;4906678;29;20138;-89
2022/09/12 20:44:03;;;;;;;4.85;3.80;;;15.10;62.20;;;;;;4917452;28;20074;-91
2022/09/12 20:46:29;;;;;;;6.07;4.05;;;15.10;62.30;;;;;;4918329;29;20070;-89
2022/09/12 20:48:55;;;;;;;6.40;4.13;;;15.10;62.30;;;;;;4946874;29;20047;-89
2022/09/12 20:51:23;;;;;;;5.35;4.13;;;15.10;62.30;;;;;;4964992;28;20038;-88
2022/09/12 20:53:53;;;;;;;4.20;3.80;;;15.10;62.30;;;;;;4961601;29;20108;-87
2022/09/12 20:56:19;;;;;;;4.78;3.78;;;15.10;62.30;;;;;;4930974;29;20081;-87
2022/09/12 20:58:46;;;;;;;4.75;3.53;;;15.10;62.40;;;;;;4960493;28;20043;-87
2022/09/12 21:01:14;;;;;;;6.13;4.30;;;15.00;62.40;;;;;;4925988;29;20026;-88
2022/09/12 21:03:42;;;;;;;5.15;3.72;;;15.10;62.40;;;;;;4951838;28;20035;-89